Time;durP1;ratioP1;P1;durP2;ratioP2;P2;SDS_P1;SDS_P2;PMS_P1;PMS_P2;Temp;Humidity;BMP_temperature;BMP_pressure;BME280_temperature;BME280_humidity;BME280_pressure;Samples;Min_cycle;Max_cycle;Signal;HPM_P1;HPM_P2
2022/10/16 00:01:22;;;;;;;11.70;5.85;;;20.90;99.90;;;;;;5089660;28;20127;-70
2022/10/16 00:03:49;;;;;;;14.43;5.85;;;20.90;99.90;;;;;;5092318;28;20084;-69
2022/10/16 00:06:18;;;;;;;14.82;5.35;;;21.00;99.90;;;;;;5091332;28;20117;-69
2022/10/16 00:08:46;;;;;;;11.48;4.70;;;21.00;99.90;;;;;;5091635;28;20135;-69
2022/10/16 00:11:20;;;;;;;9.63;3.78;;;21.10;99.90;;;;;;5091482;28;20064;-71
2022/10/16 00:13:48;;;;;;;14.60;3.67;;;21.20;99.90;;;;;;5092066;28;20793;-71
2022/10/16 00:16:15;;;;;;;10.15;2.85;;;21.30;99.90;;;;;;5092056;28;20085;-69
2022/10/16 00:18:42;;;;;;;11.40;3.33;;;21.40;99.90;;;;;;5091732;28;20117;-71
2022/10/16 00:21:12;;;;;;;12.43;2.85;;;21.50;99.90;;;;;;5091679;28;20175;-70
2022/10/16 00:23:40;;;;;;;10.50;3.67;;;21.50;99.90;;;;;;5091680;28;20413;-71
2022/10/16 00:26:10;;;;;;;12.50;4.05;;;21.60;99.90;;;;;;5090843;28;20072;-70
2022/10/16 00:28:37;;;;;;;12.38;3.30;;;21.60;99.90;;;;;;5089504;28;20076;-69
2022/10/16 00:31:13;;;;;;;14.70;4.00;;;21.60;99.90;;;;;;5091425;28;20061;-70
2022/10/16 00:33:40;;;;;;;19.75;3.60;;;21.70;99.90;;;;;;5091368;28;20086;-73
2022/10/16 00:36:09;;;;;;;12.40;3.78;;;21.70;99.90;;;;;;5094360;28;20073;-68
2022/10/16 00:38:37;;;;;;;12.57;3.75;;;21.60;99.90;;;;;;5099491;28;20072;-70
2022/10/16 00:41:05;;;;;;;11.02;3.30;;;21.70;99.90;;;;;;5091588;28;20068;-71
2022/10/16 00:43:36;;;;;;;12.23;3.13;;;21.70;99.90;;;;;;5090975;28;20581;-69
2022/10/16 00:46:04;;;;;;;14.88;3.00;;;21.60;99.90;;;;;;5091508;28;20105;-69
2022/10/16 00:48:31;;;;;;;6.57;2.38;;;21.70;99.90;;;;;;5090750;28;20069;-70
2022/10/16 00:50:59;;;;;;;11.48;2.28;;;21.60;99.90;;;;;;5091138;28;20076;-71
2022/10/16 00:53:27;;;;;;;8.77;2.17;;;21.60;99.90;;;;;;5091190;28;20069;-71
2022/10/16 00:55:54;;;;;;;6.10;2.20;;;21.60;99.90;;;;;;5096661;28;20096;-71
2022/10/16 00:58:20;;;;;;;7.80;2.15;;;21.60;99.90;;;;;;5090866;28;20541;-70
2022/10/16 01:00:47;;;;;;;9.30;2.45;;;21.50;99.90;;;;;;5087556;28;20108;-71
2022/10/16 01:03:35;;;;;;;9.85;2.22;;;21.50;99.90;;;;;;5089879;28;20064;-72
2022/10/16 01:06:39;;;;;;;7.50;2.05;;;21.40;99.90;;;;;;5090570;28;20107;-69
2022/10/16 01:09:12;;;;;;;7.40;2.17;;;21.40;99.90;;;;;;5090508;28;20495;-69
2022/10/16 01:12:18;;;;;;;6.35;2.10;;;21.30;99.90;;;;;;5089725;28;20073;-71
2022/10/16 01:14:58;;;;;;;9.10;2.45;;;21.30;99.90;;;;;;5028558;28;20144;-70
2022/10/16 01:17:39;;;;;;;7.93;2.33;;;21.30;99.90;;;;;;5030250;28;20094;-67
2022/10/16 01:20:25;;;;;;;8.50;2.13;;;21.20;99.90;;;;;;5028864;28;20074;-73
2022/10/16 01:23:16;;;;;;;5.82;2.10;;;21.20;99.90;;;;;;5028531;28;20090;-71
2022/10/16 01:26:00;;;;;;;8.40;2.50;;;21.10;99.90;;;;;;5030400;28;20105;-69
2022/10/16 01:28:56;;;;;;;9.70;2.42;;;21.10;99.90;;;;;;5027972;28;20117;-72
2022/10/16 01:31:29;;;;;;;10.40;2.28;;;21.10;99.90;;;;;;4968730;28;20123;-71
2022/10/16 01:34:19;;;;;;;5.32;2.25;;;21.10;99.90;;;;;;4969534;28;20552;-72
2022/10/16 01:37:16;;;;;;;7.85;2.65;;;21.00;99.90;;;;;;4969224;28;20569;-71
2022/10/16 01:39:45;;;;;;;7.65;2.72;;;21.10;99.90;;;;;;4968743;28;20083;-71
2022/10/16 01:42:21;;;;;;;9.40;2.95;;;21.10;99.90;;;;;;4969724;28;20488;-71
2022/10/16 01:44:49;;;;;;;7.68;2.65;;;21.10;99.90;;;;;;4969247;28;20091;-71
2022/10/16 01:47:17;;;;;;;11.18;2.40;;;21.00;99.90;;;;;;4969459;28;20183;-72
2022/10/16 01:49:45;;;;;;;11.43;2.60;;;21.00;99.90;;;;;;4968813;28;20091;-71
2022/10/16 01:52:16;;;;;;;10.70;3.25;;;21.00;99.90;;;;;;5039914;28;20100;-71
2022/10/16 01:54:48;;;;;;;5.57;2.05;;;21.00;99.90;;;;;;5045860;28;20563;-72
2022/10/16 01:57:15;;;;;;;8.93;2.35;;;20.90;99.90;;;;;;5048427;28;20101;-70
2022/10/16 01:59:47;;;;;;;6.28;2.33;;;20.90;99.90;;;;;;5046742;28;20416;-71
2022/10/16 02:02:15;;;;;;;6.45;2.17;;;20.90;99.90;;;;;;5039665;28;20964;-70
2022/10/16 02:04:49;;;;;;;6.80;1.90;;;20.90;99.90;;;;;;5043787;28;20116;-72
2022/10/16 02:07:16;;;;;;;6.28;2.13;;;20.80;99.90;;;;;;5054193;28;20145;-71
2022/10/16 02:09:43;;;;;;;4.53;2.53;;;20.80;99.90;;;;;;5089664;28;20533;-71
2022/10/16 02:12:35;;;;;;;11.18;2.58;;;20.80;99.90;;;;;;5089856;28;20083;-70
2022/10/16 02:15:02;;;;;;;8.23;2.22;;;20.80;99.90;;;;;;5087580;28;20135;-72
2022/10/16 02:17:29;;;;;;;4.88;2.30;;;20.70;99.90;;;;;;5087066;28;20091;-72
2022/10/16 02:19:57;;;;;;;4.88;2.80;;;20.70;99.90;;;;;;5087924;28;20074;-73
2022/10/16 02:22:33;;;;;;;5.20;3.10;;;20.70;99.90;;;;;;5089299;28;20076;-71
2022/10/16 02:25:23;;;;;;;7.75;4.00;;;20.70;99.90;;;;;;5089820;28;20076;-70
2022/10/16 02:28:02;;;;;;;7.07;2.70;;;20.70;99.90;;;;;;5089105;28;20084;-69
2022/10/16 02:30:56;;;;;;;6.80;1.60;;;20.70;99.90;;;;;;5087990;28;20166;-71
2022/10/16 02:33:25;;;;;;;4.32;1.98;;;20.70;99.90;;;;;;5081806;28;20084;-68
2022/10/16 02:35:53;;;;;;;6.22;2.13;;;20.70;99.90;;;;;;5090227;28;20098;-72
2022/10/16 02:38:21;;;;;;;6.15;2.28;;;20.80;99.90;;;;;;5088524;28;20192;-68
2022/10/16 02:40:48;;;;;;;5.90;2.50;;;20.80;99.90;;;;;;5088755;28;20092;-69
2022/10/16 02:43:15;;;;;;;6.97;3.33;;;20.70;99.90;;;;;;5089926;28;20068;-70
2022/10/16 02:45:41;;;;;;;8.55;3.75;;;20.70;99.90;;;;;;5088474;28;20071;-69
2022/10/16 02:48:08;;;;;;;12.07;3.38;;;20.70;99.90;;;;;;5088741;28;20076;-70
2022/10/16 02:50:34;;;;;;;7.60;4.43;;;20.80;99.90;;;;;;5086605;28;20494;-71
2022/10/16 02:53:01;;;;;;;9.55;3.03;;;20.80;99.90;;;;;;5086609;28;20096;-70
2022/10/16 02:55:27;;;;;;;7.43;2.00;;;20.80;99.90;;;;;;5093176;28;20080;-71
2022/10/16 02:57:54;;;;;;;8.75;2.78;;;20.80;99.90;;;;;;5089310;28;20560;-69
2022/10/16 03:00:21;;;;;;;4.47;2.38;;;20.80;99.90;;;;;;5088993;28;20085;-71
2022/10/16 03:02:47;;;;;;;10.10;2.90;;;20.90;99.90;;;;;;5085687;28;20160;-69
2022/10/16 03:05:14;;;;;;;8.13;2.35;;;20.90;99.90;;;;;;5085557;28;20434;-71
2022/10/16 03:07:41;;;;;;;8.48;2.38;;;20.90;99.90;;;;;;5087849;28;20104;-71
2022/10/16 03:10:07;;;;;;;6.80;2.63;;;20.90;99.90;;;;;;5090119;28;20095;-71
2022/10/16 03:12:34;;;;;;;9.15;2.30;;;20.90;99.90;;;;;;5093757;28;20561;-72
2022/10/16 03:15:00;;;;;;;8.73;2.03;;;20.80;99.90;;;;;;5093735;28;20541;-72
2022/10/16 03:17:27;;;;;;;8.48;1.80;;;20.80;99.90;;;;;;5091615;28;20135;-73
2022/10/16 03:19:53;;;;;;;11.65;3.47;;;20.70;99.90;;;;;;5093111;28;20065;-73
2022/10/16 03:22:19;;;;;;;8.50;3.95;;;20.80;99.90;;;;;;5093189;28;20072;-72
2022/10/16 03:24:46;;;;;;;11.02;2.80;;;20.80;99.90;;;;;;5095912;28;20558;-72
2022/10/16 03:27:12;;;;;;;11.65;3.58;;;20.70;99.90;;;;;;5094353;28;20068;-72
2022/10/16 03:29:39;;;;;;;13.32;3.67;;;20.60;99.90;;;;;;5092263;28;20171;-69
2022/10/16 03:32:05;;;;;;;12.30;3.20;;;20.60;99.90;;;;;;5097981;28;20141;-69
2022/10/16 03:34:31;;;;;;;11.02;3.80;;;20.60;99.90;;;;;;5093918;28;20069;-69
2022/10/16 03:36:58;;;;;;;13.77;3.63;;;20.60;99.90;;;;;;5096177;28;20092;-73
2022/10/16 03:39:24;;;;;;;10.70;3.42;;;20.60;99.90;;;;;;5093443;28;20103;-70
2022/10/16 03:41:50;;;;;;;20.20;3.75;;;20.50;99.90;;;;;;5095249;28;20061;-67
2022/10/16 03:44:17;;;;;;;15.60;2.83;;;20.50;99.90;;;;;;5095461;28;20129;-71
2022/10/16 03:46:43;;;;;;;16.35;2.88;;;20.60;99.90;;;;;;5094598;28;20120;-72
2022/10/16 03:49:10;;;;;;;26.73;3.17;;;20.50;99.90;;;;;;5091296;28;20076;-68
2022/10/16 03:51:37;;;;;;;16.38;3.08;;;20.50;99.90;;;;;;5099228;28;20526;-71
2022/10/16 03:54:03;;;;;;;15.80;3.17;;;20.50;99.90;;;;;;5097268;28;20549;-71
2022/10/16 03:56:29;;;;;;;16.85;3.08;;;20.50;99.90;;;;;;5090960;28;21241;-68
2022/10/16 03:58:56;;;;;;;17.23;2.75;;;20.50;99.90;;;;;;5096640;28;20072;-70
2022/10/16 04:01:22;;;;;;;14.88;2.33;;;20.40;99.90;;;;;;5093395;28;20085;-73
2022/10/16 04:03:49;;;;;;;17.83;2.90;;;20.50;99.90;;;;;;5083878;28;20471;-72
2022/10/16 04:06:15;;;;;;;18.90;2.63;;;20.50;99.90;;;;;;5091161;28;20088;-71
2022/10/16 04:08:43;;;;;;;14.75;2.38;;;20.50;99.90;;;;;;5083399;28;20065;-67
2022/10/16 04:11:10;;;;;;;14.13;2.20;;;20.50;99.90;;;;;;5085896;28;20127;-69
2022/10/16 04:13:36;;;;;;;13.20;2.20;;;20.40;99.90;;;;;;5097366;28;20119;-68
2022/10/16 04:16:03;;;;;;;11.95;2.08;;;20.40;99.90;;;;;;5091697;28;20594;-69
2022/10/16 04:18:29;;;;;;;13.65;2.20;;;20.40;99.90;;;;;;5098435;28;20104;-70
2022/10/16 04:20:56;;;;;;;11.88;2.10;;;20.40;99.90;;;;;;5093230;28;20085;-69
2022/10/16 04:23:23;;;;;;;14.55;2.08;;;20.40;99.90;;;;;;5092982;28;20082;-69
2022/10/16 04:25:50;;;;;;;11.50;2.10;;;20.40;99.90;;;;;;5093006;28;20130;-69
2022/10/16 04:28:17;;;;;;;12.80;1.80;;;20.40;99.90;;;;;;5097186;28;20087;-70
2022/10/16 04:30:43;;;;;;;14.57;2.38;;;20.40;99.90;;;;;;5094022;28;20100;-70
2022/10/16 04:33:10;;;;;;;13.75;2.08;;;20.40;99.90;;;;;;5090467;28;20129;-71
2022/10/16 04:35:36;;;;;;;12.48;2.20;;;20.40;99.90;;;;;;5096294;28;20166;-70
2022/10/16 04:38:03;;;;;;;13.30;2.53;;;20.40;99.90;;;;;;5094147;28;20115;-72
2022/10/16 04:40:32;;;;;;;6.78;2.05;;;20.40;99.90;;;;;;5097974;28;20112;-70
2022/10/16 04:42:59;;;;;;;13.40;2.60;;;20.40;99.90;;;;;;5095816;28;20073;-72
2022/10/16 04:45:26;;;;;;;12.85;2.33;;;20.40;99.90;;;;;;5094702;28;20065;-71
2022/10/16 04:47:52;;;;;;;15.25;2.40;;;20.40;99.90;;;;;;5095206;28;20108;-70
2022/10/16 04:50:18;;;;;;;8.02;2.28;;;20.40;99.90;;;;;;5087436;28;20077;-68
2022/10/16 04:52:45;;;;;;;9.10;2.45;;;20.40;99.90;;;;;;5099057;28;20073;-69
2022/10/16 04:55:11;;;;;;;9.82;2.10;;;20.40;99.90;;;;;;5096848;28;20102;-72
2022/10/16 04:57:38;;;;;;;12.27;2.22;;;20.40;99.90;;;;;;5095017;28;20095;-71
2022/10/16 05:00:05;;;;;;;11.50;2.13;;;20.50;99.90;;;;;;5092389;28;20092;-70
2022/10/16 05:02:31;;;;;;;8.27;2.60;;;20.50;99.90;;;;;;5091336;28;20442;-73
2022/10/16 05:04:58;;;;;;;8.55;1.70;;;20.50;99.90;;;;;;5088566;28;20595;-73
2022/10/16 05:07:24;;;;;;;9.32;2.17;;;20.50;99.90;;;;;;5089524;28;20072;-72
2022/10/16 05:09:51;;;;;;;2.88;1.33;;;20.40;99.90;;;;;;5091856;28;20108;-72
2022/10/16 05:12:17;;;;;;;14.23;2.03;;;20.40;99.90;;;;;;5089539;28;20125;-70
2022/10/16 05:14:43;;;;;;;7.22;1.75;;;20.40;99.90;;;;;;5090498;28;20561;-72
2022/10/16 05:17:10;;;;;;;5.05;1.80;;;20.50;99.90;;;;;;5088827;28;20084;-72
2022/10/16 05:19:36;;;;;;;4.20;1.80;;;20.50;99.90;;;;;;5087344;28;20118;-74
2022/10/16 05:22:03;;;;;;;6.95;1.40;;;20.50;99.90;;;;;;5088775;28;20067;-73
2022/10/16 05:24:29;;;;;;;5.00;1.40;;;20.50;99.90;;;;;;5097387;28;20068;-72
2022/10/16 05:26:55;;;;;;;5.60;2.13;;;20.50;99.90;;;;;;5095933;28;20076;-72
2022/10/16 05:29:22;;;;;;;4.32;1.70;;;20.50;99.90;;;;;;5090166;28;20092;-71
2022/10/16 05:31:52;;;;;;;5.47;1.70;;;20.50;99.90;;;;;;5090255;28;20804;-70
2022/10/16 05:34:18;;;;;;;6.78;1.73;;;20.50;99.90;;;;;;5093127;28;20077;-70
2022/10/16 05:36:45;;;;;;;4.97;1.88;;;20.50;99.90;;;;;;5090843;28;20101;-73
2022/10/16 05:39:12;;;;;;;6.57;2.25;;;20.50;99.90;;;;;;5098622;28;20091;-70
2022/10/16 05:41:38;;;;;;;4.93;2.22;;;20.50;99.90;;;;;;5087932;28;20064;-72
2022/10/16 05:44:05;;;;;;;6.65;2.42;;;20.50;99.90;;;;;;5096183;28;20612;-71
2022/10/16 05:46:32;;;;;;;9.13;2.42;;;20.50;99.90;;;;;;5090692;28;20076;-71
2022/10/16 05:48:59;;;;;;;8.00;2.47;;;20.50;99.90;;;;;;5091898;28;20104;-70
2022/10/16 05:51:26;;;;;;;6.80;2.03;;;20.50;99.90;;;;;;5089271;28;20065;-71
2022/10/16 05:53:53;;;;;;;7.70;2.92;;;20.50;99.90;;;;;;5090225;28;20076;-72
2022/10/16 05:56:19;;;;;;;6.85;3.63;;;20.60;99.90;;;;;;5088971;28;20092;-70
2022/10/16 05:58:46;;;;;;;7.97;3.92;;;20.60;99.90;;;;;;5094124;28;20167;-72
2022/10/16 06:01:15;;;;;;;8.68;3.92;;;20.60;99.90;;;;;;5090023;28;20096;-74
2022/10/16 06:03:41;;;;;;;12.15;3.83;;;20.70;99.90;;;;;;5089450;28;20167;-72
2022/10/16 06:06:15;;;;;;;11.00;3.53;;;20.70;99.90;;;;;;5084901;28;20076;-69
2022/10/16 06:08:45;;;;;;;12.23;3.38;;;20.60;99.90;;;;;;5089694;28;20600;-70
2022/10/16 06:11:16;;;;;;;7.30;2.70;;;20.70;99.90;;;;;;5089623;28;20683;-72
2022/10/16 06:13:45;;;;;;;7.38;2.70;;;20.70;99.90;;;;;;5089258;28;20080;-71
2022/10/16 06:16:13;;;;;;;10.38;2.90;;;20.80;99.90;;;;;;5091186;28;20077;-73
2022/10/16 06:18:39;;;;;;;6.93;3.38;;;20.80;99.90;;;;;;5088747;28;20233;-72
2022/10/16 06:21:11;;;;;;;8.65;3.20;;;20.80;99.90;;;;;;5088729;28;20080;-72
2022/10/16 06:23:37;;;;;;;6.65;2.72;;;20.80;99.90;;;;;;5089640;28;20577;-71
2022/10/16 06:26:09;;;;;;;10.98;3.47;;;20.80;99.90;;;;;;5098268;28;20168;-73
2022/10/16 06:28:35;;;;;;;13.70;3.47;;;20.80;99.90;;;;;;5103134;28;20079;-74
2022/10/16 06:31:03;;;;;;;9.30;3.95;;;20.80;99.90;;;;;;5096346;28;20103;-73
2022/10/16 06:33:30;;;;;;;9.45;3.90;;;20.80;99.90;;;;;;5097757;28;20525;-71
2022/10/16 06:36:08;;;;;;;10.07;3.92;;;20.80;99.90;;;;;;5092984;28;20525;-70
2022/10/16 06:38:36;;;;;;;9.10;4.05;;;20.80;99.90;;;;;;5086480;28;20114;-70
2022/10/16 06:41:02;;;;;;;11.73;4.25;;;20.80;99.90;;;;;;5092120;28;20068;-74
2022/10/16 06:43:32;;;;;;;8.55;4.18;;;20.80;99.90;;;;;;5097608;28;20073;-70
2022/10/16 06:46:01;;;;;;;10.70;3.92;;;20.80;99.90;;;;;;5097818;28;20518;-72
2022/10/16 06:48:27;;;;;;;13.23;4.05;;;20.80;99.90;;;;;;5090951;28;20073;-70
2022/10/16 06:51:08;;;;;;;10.55;4.28;;;20.70;99.90;;;;;;5094550;28;20070;-71
2022/10/16 06:53:37;;;;;;;13.57;4.75;;;20.80;99.90;;;;;;5095116;28;20113;-70
2022/10/16 06:56:17;;;;;;;11.38;4.18;;;20.80;99.90;;;;;;5094056;28;20077;-71
2022/10/16 06:58:44;;;;;;;12.35;3.75;;;20.80;99.90;;;;;;5093092;28;20754;-67
2022/10/16 07:01:12;;;;;;;9.10;4.72;;;20.80;99.90;;;;;;5087143;28;20513;-71
2022/10/16 07:03:43;;;;;;;11.55;4.40;;;20.70;99.90;;;;;;5091543;28;20548;-70
2022/10/16 07:06:12;;;;;;;12.15;4.45;;;20.70;99.90;;;;;;5087350;28;20072;-73
2022/10/16 07:08:41;;;;;;;10.65;4.43;;;20.70;99.90;;;;;;5085392;28;20110;-70
2022/10/16 07:11:10;;;;;;;9.00;4.38;;;20.90;99.90;;;;;;5088007;28;20099;-71
2022/10/16 07:13:38;;;;;;;19.55;4.85;;;20.50;99.90;;;;;;5093947;28;20801;-72
2022/10/16 07:16:14;;;;;;;9.90;4.18;;;20.30;99.90;;;;;;5089787;28;20173;-69
2022/10/16 07:18:42;;;;;;;9.53;3.90;;;20.40;99.90;;;;;;5088572;28;20069;-71
2022/10/16 07:21:14;;;;;;;10.80;4.25;;;20.40;99.90;;;;;;5090493;28;20068;-74
2022/10/16 07:23:43;;;;;;;9.52;3.72;;;20.40;99.90;;;;;;5090650;28;20544;-73
2022/10/16 07:26:10;;;;;;;9.15;3.75;;;20.40;99.90;;;;;;5088346;28;20554;-74
2022/10/16 07:28:37;;;;;;;9.43;3.70;;;20.40;99.90;;;;;;5089877;28;20084;-75
2022/10/16 07:31:10;;;;;;;6.60;3.40;;;20.40;99.90;;;;;;5088000;28;20546;-72
2022/10/16 07:33:38;;;;;;;7.35;3.35;;;20.40;99.90;;;;;;5088479;28;20076;-75
2022/10/16 07:36:05;;;;;;;7.80;3.58;;;20.40;99.90;;;;;;5089455;28;20088;-72
2022/10/16 07:38:31;;;;;;;11.30;3.70;;;20.40;99.90;;;;;;5088183;28;20120;-73
2022/10/16 07:41:05;;;;;;;8.32;3.90;;;20.40;99.90;;;;;;5087688;28;20444;-69
2022/10/16 07:43:33;;;;;;;7.68;3.83;;;20.40;99.90;;;;;;5091149;28;20544;-75
2022/10/16 07:46:00;;;;;;;8.18;3.97;;;20.30;99.90;;;;;;5087645;28;20077;-72
2022/10/16 07:48:31;;;;;;;13.05;4.78;;;20.30;99.90;;;;;;5088849;28;20073;-72
2022/10/16 07:50:59;;;;;;;10.75;4.80;;;20.30;99.90;;;;;;5090687;28;20464;-72
2022/10/16 07:53:26;;;;;;;8.32;4.32;;;20.20;99.90;;;;;;5092981;28;20590;-73
2022/10/16 07:55:57;;;;;;;12.70;4.82;;;20.20;99.90;;;;;;5095725;28;20073;-76
2022/10/16 07:58:24;;;;;;;14.98;5.75;;;20.20;99.90;;;;;;5089997;28;20137;-72
2022/10/16 08:00:50;;;;;;;12.07;5.78;;;20.20;99.90;;;;;;5090741;28;20100;-74
2022/10/16 08:03:16;;;;;;;11.20;5.68;;;20.20;99.90;;;;;;5091774;28;20147;-74
2022/10/16 08:05:43;;;;;;;10.98;5.55;;;20.10;99.90;;;;;;5091493;28;20083;-75
2022/10/16 08:08:14;;;;;;;13.15;5.68;;;20.10;99.90;;;;;;5087477;28;20065;-74
2022/10/16 08:10:41;;;;;;;16.40;5.80;;;20.10;99.90;;;;;;5089966;28;20072;-73
2022/10/16 08:13:08;;;;;;;11.27;5.25;;;20.10;99.90;;;;;;5097379;28;20530;-75
2022/10/16 08:15:34;;;;;;;8.93;5.55;;;20.10;99.90;;;;;;5091279;28;20196;-74
2022/10/16 08:18:03;;;;;;;12.02;5.75;;;20.10;99.90;;;;;;5090499;28;20393;-75
2022/10/16 08:20:31;;;;;;;13.50;7.10;;;20.00;99.90;;;;;;5094129;28;20424;-72
2022/10/16 08:22:57;;;;;;;16.20;8.10;;;20.00;99.90;;;;;;5091296;28;20448;-73
2022/10/16 08:25:24;;;;;;;25.45;10.32;;;20.00;99.90;;;;;;5092706;28;20441;-74
2022/10/16 08:27:51;;;;;;;19.00;10.48;;;20.00;99.90;;;;;;5090425;28;20599;-74
2022/10/16 08:30:19;;;;;;;20.60;10.18;;;20.10;99.90;;;;;;5091565;28;20182;-74
2022/10/16 08:32:46;;;;;;;16.33;8.10;;;20.10;99.90;;;;;;5092382;28;20095;-75
2022/10/16 08:35:13;;;;;;;14.07;7.18;;;20.10;99.90;;;;;;5098462;28;20084;-79
2022/10/16 08:37:40;;;;;;;16.90;7.75;;;20.00;99.90;;;;;;5089452;28;20095;-74
2022/10/16 08:40:15;;;;;;;14.00;7.00;;;20.10;99.90;;;;;;5097360;28;20100;-73
2022/10/16 08:43:16;;;;;;;13.68;7.15;;;20.10;99.90;;;;;;5091635;28;20064;-77
2022/10/16 08:46:00;;;;;;;17.10;7.90;;;20.00;99.90;;;;;;5090267;28;20077;-75
2022/10/16 08:48:47;;;;;;;12.02;7.78;;;20.10;99.90;;;;;;5097696;28;20068;-76
2022/10/16 08:51:22;;;;;;;11.50;7.00;;;20.10;99.90;;;;;;5092800;28;20137;-74
2022/10/16 08:54:01;;;;;;;13.30;5.80;;;20.10;99.90;;;;;;5096864;28;20096;-74
2022/10/16 08:56:28;;;;;;;11.68;6.53;;;20.10;99.90;;;;;;5094766;28;20088;-75
2022/10/16 08:58:57;;;;;;;15.32;7.22;;;20.10;99.90;;;;;;5090914;28;20088;-76
2022/10/16 09:01:27;;;;;;;17.60;6.95;;;18.70;99.90;;;;;;5093011;28;20453;-75
2022/10/16 09:04:04;;;;;;;13.95;5.63;;;20.00;99.90;;;;;;5093098;28;20464;-75
2022/10/16 09:07:03;;;;;;;15.02;6.25;;;20.50;99.90;;;;;;5096448;28;20087;-76
2022/10/16 09:09:39;;;;;;;17.67;6.85;;;20.20;99.90;;;;;;5068993;28;20145;-76
2022/10/16 09:12:24;;;;;;;;;;;20.10;99.90;;;;;;5097963;28;20037;-74
2022/10/16 09:15:17;;;;;;;11.07;6.63;;;20.20;99.90;;;;;;5094431;28;19966;-74
2022/10/16 09:18:06;;;;;;;17.88;9.98;;;20.00;99.90;;;;;;5092864;28;20077;-76
2022/10/16 09:20:44;;;;;;;23.00;14.45;;;20.00;99.90;;;;;;5090698;28;20043;-77
2022/10/16 09:23:24;;;;;;;33.58;19.27;;;20.00;99.90;;;;;;5096339;28;20391;-76
2022/10/16 09:25:50;;;;;;;28.40;16.02;;;20.00;99.90;;;;;;5090761;28;20044;-76
2022/10/16 09:28:18;;;;;;;18.33;11.60;;;20.00;99.90;;;;;;5090825;28;20116;-76
2022/10/16 09:30:48;;;;;;;14.40;7.47;;;20.60;99.90;;;;;;5089748;28;20156;-78
2022/10/16 09:33:16;;;;;;;11.55;6.22;;;19.80;99.90;;;;;;5092501;28;20218;-73
2022/10/16 09:35:49;;;;;;;10.90;5.93;;;19.90;99.90;;;;;;5088768;28;20049;-74
2022/10/16 09:38:30;;;;;;;16.05;6.35;;;19.90;99.90;;;;;;5090500;28;20089;-75
2022/10/16 09:40:59;;;;;;;14.70;6.90;;;19.90;99.90;;;;;;5088888;28;20065;-75
2022/10/16 09:43:37;;;;;;;12.38;6.95;;;19.90;99.90;;;;;;5093340;28;20079;-75
2022/10/16 09:46:09;;;;;;;12.82;6.13;;;19.90;99.90;;;;;;5091034;28;20103;-76
2022/10/16 09:48:44;;;;;;;12.73;7.60;;;19.80;99.90;;;;;;5089324;28;20155;-76
2022/10/16 09:51:23;;;;;;;13.25;5.93;;;19.80;99.90;;;;;;5098344;28;20083;-78
2022/10/16 09:53:54;;;;;;;10.95;5.57;;;19.80;99.90;;;;;;5091761;28;20083;-73
2022/10/16 09:56:51;;;;;;;9.15;5.53;;;19.80;99.90;;;;;;5089840;28;20166;-73
2022/10/16 09:59:20;;;;;;;10.45;5.57;;;19.70;99.90;;;;;;5090270;28;20182;-75
2022/10/16 10:01:54;;;;;;;11.25;5.65;;;19.70;99.90;;;;;;5095418;28;20084;-79
2022/10/16 10:04:25;;;;;;;10.75;4.88;;;19.70;99.90;;;;;;5093230;28;20505;-76
2022/10/16 10:07:01;;;;;;;8.02;3.92;;;19.70;99.90;;;;;;5099008;27;20072;-77
2022/10/16 10:09:40;;;;;;;7.65;4.07;;;19.80;99.90;;;;;;5088238;28;20599;-76
2022/10/16 10:12:36;;;;;;;10.52;4.20;;;19.80;99.90;;;;;;5089453;28;20106;-73
2022/10/16 10:15:12;;;;;;;8.32;3.40;;;19.90;99.90;;;;;;5090108;28;20120;-73
2022/10/16 10:17:49;;;;;;;5.38;3.20;;;20.00;99.90;;;;;;5090208;28;20114;-79
2022/10/16 10:20:34;;;;;;;6.93;3.60;;;20.00;99.90;;;;;;5092589;28;20070;-74
2022/10/16 10:23:02;;;;;;;9.07;3.55;;;20.10;99.90;;;;;;5092405;28;20088;-76
2022/10/16 10:25:51;;;;;;;8.35;3.30;;;20.20;99.90;;;;;;5090502;28;20080;-74
2022/10/16 10:28:23;;;;;;;12.00;2.60;;;20.20;99.90;;;;;;5092318;28;20210;-78
2022/10/16 10:31:23;;;;;;;5.60;2.42;;;20.30;99.90;;;;;;5089076;28;20433;-76
2022/10/16 10:34:03;;;;;;;6.72;3.10;;;20.40;99.90;;;;;;5097533;28;20099;-76
2022/10/16 10:36:29;;;;;;;8.57;2.85;;;20.40;99.90;;;;;;5091925;28;20524;-74
2022/10/16 10:39:24;;;;;;;4.10;2.22;;;20.40;99.90;;;;;;5098203;28;20087;-77
2022/10/16 10:42:09;;;;;;;3.97;1.70;;;20.50;99.90;;;;;;5085061;28;20186;-75
2022/10/16 10:45:04;;;;;;;5.57;1.77;;;20.50;99.90;;;;;;5094193;28;20068;-74
2022/10/16 10:48:05;;;;;;;7.57;1.92;;;20.50;99.90;;;;;;5091081;28;20071;-73
2022/10/16 10:50:43;;;;;;;4.05;1.52;;;20.50;99.90;;;;;;5093990;28;20084;-80
2022/10/16 10:53:13;;;;;;;4.75;2.08;;;20.50;99.90;;;;;;5092909;28;20080;-75
2022/10/16 10:55:57;;;;;;;4.15;1.67;;;20.50;99.90;;;;;;5092080;28;20130;-76
2022/10/16 10:58:50;;;;;;;4.47;2.05;;;20.40;99.90;;;;;;5095139;28;20098;-77
2022/10/16 11:01:34;;;;;;;6.22;3.42;;;20.20;99.90;;;;;;5089801;28;20088;-75
2022/10/16 11:04:01;;;;;;;4.97;3.30;;;20.30;99.90;;;;;;5088566;28;20155;-76
2022/10/16 11:06:40;;;;;;;3.95;2.22;;;20.30;99.90;;;;;;5086996;28;20541;-75
2022/10/16 11:09:12;;;;;;;4.32;2.40;;;20.30;99.90;;;;;;5093343;28;20072;-76
2022/10/16 11:11:44;;;;;;;9.20;1.83;;;20.20;99.90;;;;;;5085171;28;20083;-77
2022/10/16 11:14:15;;;;;;;6.40;2.17;;;20.20;99.90;;;;;;5089897;28;20115;-75
2022/10/16 11:17:15;;;;;;;4.80;1.48;;;20.20;99.90;;;;;;5092980;28;20565;-77
2022/10/16 11:20:13;;;;;;;3.30;1.73;;;20.20;99.90;;;;;;5091032;28;20076;-79
2022/10/16 11:23:06;;;;;;;6.53;1.77;;;20.10;99.90;;;;;;5091761;28;20064;-76
2022/10/16 11:25:34;;;;;;;5.57;1.60;;;20.10;99.90;;;;;;5092664;28;20613;-77
2022/10/16 11:28:15;;;;;;;6.15;1.80;;;20.10;99.90;;;;;;5092097;28;20522;-76
2022/10/16 11:30:46;;;;;;;5.90;2.30;;;20.00;99.90;;;;;;5089774;28;20079;-74
2022/10/16 11:33:18;;;;;;;4.40;2.05;;;19.90;99.90;;;;;;5093693;28;20076;-77
2022/10/16 11:36:00;;;;;;;5.30;2.35;;;19.90;99.90;;;;;;5095117;28;20064;-75
2022/10/16 11:38:34;;;;;;;7.20;2.08;;;19.90;99.90;;;;;;5090364;28;20177;-78
2022/10/16 11:41:28;;;;;;;4.65;1.90;;;19.90;99.90;;;;;;5092971;28;20092;-77
2022/10/16 11:44:07;;;;;;;6.68;2.13;;;19.90;99.90;;;;;;5074006;28;20537;-74
2022/10/16 11:46:35;;;;;;;4.25;2.00;;;19.80;99.90;;;;;;5095136;28;20084;-80
2022/10/16 11:49:15;;;;;;;8.18;2.25;;;19.80;99.90;;;;;;5095451;28;20077;-77
2022/10/16 11:51:44;;;;;;;6.50;2.33;;;19.70;99.90;;;;;;5093722;28;20073;-77
2022/10/16 11:54:22;;;;;;;4.45;2.00;;;19.80;99.90;;;;;;5093858;28;20080;-75
2022/10/16 11:56:52;;;;;;;4.18;1.88;;;19.80;99.90;;;;;;5097337;28;20518;-77
2022/10/16 11:59:32;;;;;;;4.63;2.13;;;19.80;99.90;;;;;;5093758;28;20080;-76
2022/10/16 12:02:35;;;;;;;5.50;2.65;;;19.70;99.90;;;;;;5095137;28;20554;-77
2022/10/16 12:05:21;;;;;;;9.90;4.63;;;19.70;99.90;;;;;;5094885;28;20069;-77
2022/10/16 12:08:15;;;;;;;9.02;4.05;;;19.70;99.90;;;;;;5095718;28;20076;-75
2022/10/16 12:10:44;;;;;;;8.77;5.00;;;19.70;99.90;;;;;;5092320;28;20573;-77
2022/10/16 12:13:31;;;;;;;7.22;3.13;;;19.70;99.90;;;;;;5093638;28;20091;-73
2022/10/16 12:16:13;;;;;;;5.75;2.80;;;19.70;99.90;;;;;;5099105;28;20108;-77
2022/10/16 12:18:44;;;;;;;5.18;3.10;;;19.60;99.90;;;;;;5100046;28;20097;-77
2022/10/16 12:21:15;;;;;;;7.75;2.85;;;19.60;99.90;;;;;;5098479;28;20068;-77
2022/10/16 12:24:00;;;;;;;7.22;2.75;;;19.60;99.90;;;;;;5094497;28;20061;-80
2022/10/16 12:26:50;;;;;;;7.68;2.20;;;19.60;99.90;;;;;;5095441;28;20084;-77
2022/10/16 12:29:42;;;;;;;5.75;2.08;;;19.60;99.90;;;;;;5105354;28;20221;-77
2022/10/16 12:32:31;;;;;;;4.63;1.92;;;19.70;99.90;;;;;;5093465;28;20073;-76
2022/10/16 12:34:59;;;;;;;6.45;2.25;;;19.70;99.90;;;;;;5096382;28;20080;-76
2022/10/16 12:37:32;;;;;;;3.88;1.92;;;19.70;99.90;;;;;;5094181;28;20142;-77
2022/10/16 12:39:59;;;;;;;6.28;1.95;;;19.70;99.90;;;;;;5095234;28;20069;-77
2022/10/16 12:42:29;;;;;;;4.85;1.73;;;19.70;99.90;;;;;;5101410;28;20073;-72
2022/10/16 12:44:56;;;;;;;3.42;1.73;;;19.80;99.90;;;;;;5102510;28;20064;-75
2022/10/16 12:47:31;;;;;;;11.68;2.03;;;19.80;99.90;;;;;;5096400;28;20068;-74
2022/10/16 12:49:59;;;;;;;4.50;2.08;;;19.80;99.90;;;;;;5092731;28;20088;-76
2022/10/16 12:52:39;;;;;;;4.22;1.88;;;19.90;99.90;;;;;;5094096;28;20431;-76
2022/10/16 12:55:15;;;;;;;6.88;1.92;;;19.90;99.90;;;;;;5096349;28;20141;-75
2022/10/16 12:58:09;;;;;;;4.82;1.60;;;20.00;99.90;;;;;;5095675;28;20173;-74
2022/10/16 13:00:57;;;;;;;2.67;1.70;;;20.00;99.90;;;;;;5091516;28;20092;-75
2022/10/16 13:03:42;;;;;;;5.95;2.10;;;20.00;99.90;;;;;;5095774;28;20138;-74
2022/10/16 13:06:34;;;;;;;4.28;2.13;;;20.10;99.90;;;;;;5094457;28;20434;-75
2022/10/16 13:09:03;;;;;;;2.78;1.90;;;20.10;99.90;;;;;;5090904;28;20111;-74
2022/10/16 13:12:11;;;;;;;4.38;2.03;;;20.10;99.90;;;;;;5094452;28;20159;-75